Time;durP1;ratioP1;P1;durP2;ratioP2;P2;SDS_P1;SDS_P2;PMS_P1;PMS_P2;Temp;Humidity;BMP_temperature;BMP_pressure;BME280_temperature;BME280_humidity;BME280_pressure;Samples;Min_cycle;Max_cycle;Signal;HPM_P1;HPM_P2
2022/11/13 00:01:29;;;;;;;2.30;2.10;;;;;;;17.57;63.25;97513.66;10439038;28;20043;-30
2022/11/13 00:06:48;;;;;;;2.55;1.98;;;;;;;17.55;63.33;97511.06;10430390;28;20030;-30
2022/11/13 00:12:07;;;;;;;2.60;2.15;;;;;;;17.47;63.53;97496.56;10439945;28;20506;-31
2022/11/13 00:17:29;;;;;;;2.10;1.90;;;;;;;17.50;63.52;97496.63;10429929;28;20136;-29
2022/11/13 00:22:48;;;;;;;2.45;2.25;;;;;;;17.47;63.53;97488.97;10430382;28;20037;-30
2022/11/13 00:28:07;;;;;;;2.45;2.22;;;;;;;17.50;63.75;97483.97;10433681;28;20041;-30
2022/11/13 00:33:27;;;;;;;2.53;2.08;;;;;;;17.47;63.45;97496.56;10440357;28;20033;-30
2022/11/13 00:38:46;;;;;;;2.65;2.28;;;;;;;17.45;63.61;97488.09;10436206;28;20080;-29
2022/11/13 00:44:05;;;;;;;2.53;1.90;;;;;;;17.45;63.55;97483.91;10432765;28;20087;-30
2022/11/13 00:49:24;;;;;;;2.30;2.10;;;;;;;17.59;63.16;97490.03;10429580;28;20049;-30
2022/11/13 00:54:42;;;;;;;2.53;2.33;;;;;;;17.60;63.22;97480.75;10429606;28;20049;-30
2022/11/13 01:00:03;;;;;;;2.30;2.10;;;;;;;17.59;63.07;97484.97;10430470;28;20056;-30
2022/11/13 01:05:22;;;;;;;2.38;1.95;;;;;;;17.57;63.01;97479.03;10434277;28;20119;-30
2022/11/13 01:10:45;;;;;;;2.40;2.10;;;;;;;17.54;63.32;97488.25;10431505;28;20037;-30
2022/11/13 01:16:07;;;;;;;2.67;2.00;;;;;;;17.52;63.45;97484.84;10421668;28;20044;-30
2022/11/13 01:21:27;;;;;;;2.03;1.83;;;;;;;17.50;63.25;97481.44;10430116;28;20037;-31
2022/11/13 01:26:46;;;;;;;2.40;2.03;;;;;;;17.47;63.35;97481.38;10434496;28;20032;-30
2022/11/13 01:32:05;;;;;;;2.15;1.92;;;;;;;17.43;63.34;97484.72;10435111;28;20049;-30
2022/11/13 01:37:24;;;;;;;2.35;1.73;;;;;;;17.42;63.34;97477.94;10442946;28;20045;-30
2022/11/13 01:42:42;;;;;;;1.73;1.63;;;;;;;17.41;63.66;97466.94;10437810;28;20131;-30
2022/11/13 01:48:02;;;;;;;2.50;2.00;;;;;;;17.43;63.32;97456.88;10432299;28;20140;-30
2022/11/13 01:53:21;;;;;;;2.33;2.13;;;;;;;17.42;63.36;97452.63;10437376;28;20076;-30
2022/11/13 01:58:42;;;;;;;2.08;1.88;;;;;;;17.51;62.92;97450.25;10442325;28;20037;-31
2022/11/13 02:04:02;;;;;;;1.83;1.60;;;;;;;17.55;63.06;97437.66;10440846;28;20044;-30
2022/11/13 02:09:27;;;;;;;2.25;2.05;;;;;;;17.42;62.98;97407.06;10434236;28;20068;-30
2022/11/13 02:14:51;;;;;;;2.08;1.88;;;;;;;17.53;62.79;97415.66;10442895;28;20041;-29
2022/11/13 02:20:10;;;;;;;2.33;2.13;;;;;;;17.50;62.95;97408.03;10438054;28;20048;-29
2022/11/13 02:25:31;;;;;;;2.15;1.67;;;;;;;17.47;63.18;97400.38;10443174;28;20033;-30
2022/11/13 02:30:50;;;;;;;1.90;1.80;;;;;;;17.44;63.26;97390.22;10437380;28;20037;-31
2022/11/13 02:36:11;;;;;;;2.30;2.10;;;;;;;17.42;63.41;97386.81;10434921;28;20041;-30
2022/11/13 02:41:29;;;;;;;2.00;1.80;;;;;;;17.40;63.49;97383.44;10439677;28;20470;-30
2022/11/13 02:46:48;;;;;;;1.77;1.67;;;;;;;17.39;63.24;97377.50;10433349;28;20037;-29
2022/11/13 02:52:07;;;;;;;1.73;1.48;;;;;;;17.39;63.46;97369.03;10439605;28;20472;-30
2022/11/13 02:57:26;;;;;;;2.22;1.95;;;;;;;17.36;63.48;97367.34;10437797;28;20040;-30
2022/11/13 03:02:45;;;;;;;1.85;1.50;;;;;;;17.36;63.42;97366.47;10441459;28;20032;-32
2022/11/13 03:08:05;;;;;;;2.00;1.75;;;;;;;17.35;63.60;97365.59;10434918;28;20044;-31
2022/11/13 03:13:24;;;;;;;2.40;1.80;;;;;;;17.46;62.98;97363.25;10442474;28;20065;-30
2022/11/13 03:18:43;;;;;;;1.60;1.42;;;;;;;17.51;62.67;97364.16;10435621;28;20040;-29
2022/11/13 03:24:03;;;;;;;2.88;1.70;;;;;;;17.49;63.05;97363.31;10435405;28;20037;-30
2022/11/13 03:29:22;;;;;;;1.92;1.63;;;;;;;17.49;62.86;97363.31;10432356;28;20038;-30
2022/11/13 03:34:41;;;;;;;1.88;1.67;;;;;;;17.46;62.98;97363.25;10434397;28;20119;-31
2022/11/13 03:40:00;;;;;;;1.92;1.50;;;;;;;17.43;63.16;97358.16;10438038;28;20049;-30
2022/11/13 03:45:19;;;;;;;1.95;1.60;;;;;;;17.42;63.11;97356.44;10435168;28;20041;-30
2022/11/13 03:50:38;;;;;;;1.92;1.60;;;;;;;17.37;63.24;97352.97;10439453;28;20045;-31
2022/11/13 03:55:57;;;;;;;1.80;1.70;;;;;;;17.21;63.03;97325.72;10434563;28;20041;-30
2022/11/13 04:01:17;;;;;;;1.58;1.45;;;;;;;17.34;63.36;97342.78;10433801;28;20087;-33
2022/11/13 04:06:36;;;;;;;1.88;1.77;;;;;;;17.31;63.39;97340.22;10436953;28;20034;-30
2022/11/13 04:11:55;;;;;;;1.92;1.80;;;;;;;17.29;63.46;97329.22;10443537;28;20059;-30
2022/11/13 04:17:14;;;;;;;1.60;1.50;;;;;;;17.34;63.25;97332.66;10434879;28;20041;-30
2022/11/13 04:22:33;;;;;;;1.70;1.58;;;;;;;17.37;63.11;97332.72;10430558;28;20033;-29
2022/11/13 04:27:52;;;;;;;1.65;1.50;;;;;;;17.44;62.84;97319.34;10436257;28;20045;-30
2022/11/13 04:33:11;;;;;;;1.67;1.58;;;;;;;17.37;62.71;97302.38;10437223;28;20495;-30
2022/11/13 04:38:30;;;;;;;1.63;1.52;;;;;;;17.44;62.79;97306.69;10435262;28;20041;-30
2022/11/13 04:43:49;;;;;;;1.65;1.50;;;;;;;17.43;62.54;97312.56;10432545;28;20067;-31
2022/11/13 04:49:08;;;;;;;1.55;1.45;;;;;;;17.41;62.85;97309.19;10433754;28;20072;-30
2022/11/13 04:54:27;;;;;;;1.30;1.20;;;;;;;17.36;62.75;97318.38;10428980;28;20045;-29
2022/11/13 04:59:45;;;;;;;1.35;1.25;;;;;;;17.34;63.01;97297.25;10426874;28;20045;-30
2022/11/13 05:05:05;;;;;;;1.60;1.50;;;;;;;17.33;62.77;97287.94;10439125;28;20434;-30
2022/11/13 05:10:24;;;;;;;1.42;1.30;;;;;;;17.32;63.00;97288.78;10436156;28;20041;-30
2022/11/13 05:15:43;;;;;;;1.73;1.60;;;;;;;17.28;63.22;97271.84;10442757;28;20049;-29
2022/11/13 05:21:04;;;;;;;1.60;1.50;;;;;;;17.29;63.05;97268.47;10438213;28;20500;-29
2022/11/13 05:26:22;;;;;;;1.80;1.70;;;;;;;17.30;63.10;97255.00;10443674;28;20029;-29
2022/11/13 05:31:41;;;;;;;1.33;1.15;;;;;;;17.29;63.09;97245.69;10442627;28;20269;-30
2022/11/13 05:37:00;;;;;;;1.45;1.20;;;;;;;17.34;62.92;97251.69;10439834;28;20041;-30
2022/11/13 05:42:19;;;;;;;1.52;1.30;;;;;;;17.41;62.56;97249.28;10442248;28;20120;-30
2022/11/13 05:47:38;;;;;;;1.50;1.40;;;;;;;17.44;62.29;97249.31;10437947;28;20449;-30
2022/11/13 05:52:57;;;;;;;1.70;1.38;;;;;;;17.40;62.70;97247.56;10437445;28;20423;-30
2022/11/13 05:58:16;;;;;;;1.70;1.60;;;;;;;17.38;62.60;97243.31;10442764;28;20517;-30
2022/11/13 06:03:36;;;;;;;1.58;1.48;;;;;;;17.36;62.58;97250.03;10442684;28;20084;-30
2022/11/13 06:08:57;;;;;;;1.42;1.27;;;;;;;17.32;62.85;97245.75;10433514;28;20033;-29
2022/11/13 06:14:16;;;;;;;1.48;1.38;;;;;;;17.29;62.97;97244.03;10441121;28;20041;-29
2022/11/13 06:19:35;;;;;;;1.27;1.10;;;;;;;17.28;62.77;97247.41;10438297;28;20041;-31
2022/11/13 06:24:54;;;;;;;1.02;1.00;;;;;;;17.23;62.90;97238.06;10443534;28;20041;-29
2022/11/13 06:30:13;;;;;;;1.63;1.42;;;;;;;17.27;63.01;97239.78;10438956;28;20102;-30
2022/11/13 06:35:32;;;;;;;1.60;1.50;;;;;;;17.25;63.07;97236.38;10438351;28;20123;-31
2022/11/13 06:40:51;;;;;;;1.50;1.30;;;;;;;17.28;63.00;97231.34;10439559;28;20042;-30
2022/11/13 06:46:22;;;;;;;1.58;1.48;;;;;;;17.26;63.03;97223.72;10443683;28;20060;-30
2022/11/13 06:51:40;;;;;;;1.48;1.27;;;;;;;17.35;62.66;97217.94;10434422;28;20037;-30
2022/11/13 06:56:59;;;;;;;1.40;1.23;;;;;;;17.37;62.45;97211.25;10439495;28;20045;-28
2022/11/13 07:02:18;;;;;;;1.52;1.42;;;;;;;17.39;62.41;97209.56;10437497;28;20037;-28
2022/11/13 07:07:37;;;;;;;1.73;1.30;;;;;;;17.36;62.37;97207.03;10441977;28;20484;-28
2022/11/13 07:12:59;;;;;;;1.23;1.08;;;;;;;17.34;62.33;97216.25;10444286;28;20043;-29
2022/11/13 07:18:19;;;;;;;1.50;1.40;;;;;;;17.31;62.57;97211.16;10446432;28;20041;-28
2022/11/13 07:23:42;;;;;;;1.40;1.30;;;;;;;17.26;62.79;97205.19;10435931;28;20089;-28
2022/11/13 07:29:01;;;;;;;1.20;1.10;;;;;;;17.25;62.94;97206.03;10435346;28;20304;-28
2022/11/13 07:34:20;;;;;;;1.20;1.10;;;;;;;17.25;62.79;97203.50;10438659;28;20041;-27
2022/11/13 07:39:38;;;;;;;1.33;1.23;;;;;;;17.24;62.88;97209.38;10442693;28;20037;-27
2022/11/13 07:44:57;;;;;;;1.38;1.23;;;;;;;17.24;62.71;97209.38;10435548;28;20221;-28
2022/11/13 07:50:16;;;;;;;1.35;1.20;;;;;;;17.20;62.91;97208.50;10440605;28;20036;-28
2022/11/13 07:55:36;;;;;;;1.20;1.10;;;;;;;17.21;62.83;97210.19;10437325;28;20411;-28
2022/11/13 08:01:01;;;;;;;1.35;1.25;;;;;;;17.26;62.62;97207.72;10434101;28;20507;-28
2022/11/13 08:06:20;;;;;;;1.52;1.25;;;;;;;17.31;62.50;97201.88;10435592;28;20045;-29
2022/11/13 08:11:38;;;;;;;1.30;1.20;;;;;;;17.31;62.38;97190.91;10442107;28;20040;-29
2022/11/13 08:16:57;;;;;;;1.20;1.10;;;;;;;17.31;62.37;97186.69;10438591;28;20037;-28
2022/11/13 08:22:16;;;;;;;1.40;1.30;;;;;;;17.29;62.40;97182.44;10435982;28;20041;-25
2022/11/13 08:27:35;;;;;;;1.30;1.08;;;;;;;17.26;62.60;97174.81;10441388;28;20496;-28
2022/11/13 08:32:55;;;;;;;1.23;1.10;;;;;;;17.23;62.78;97172.25;10433440;28;20049;-28
2022/11/13 08:38:14;;;;;;;1.02;0.93;;;;;;;17.22;62.92;97173.06;10442702;28;20044;-28
2022/11/13 08:43:33;;;;;;;1.25;1.08;;;;;;;17.12;62.82;97143.44;10438466;28;20467;-28
2022/11/13 08:48:52;;;;;;;0.90;0.90;;;;;;;17.21;62.77;97156.19;10433424;28;20037;-28
2022/11/13 08:54:11;;;;;;;1.35;1.25;;;;;;;17.20;62.78;97151.97;10438675;28;20041;-28
2022/11/13 08:59:30;;;;;;;1.17;1.08;;;;;;;17.17;62.76;97157.00;10434845;28;20419;-28
2022/11/13 09:04:48;;;;;;;1.13;1.02;;;;;;;17.19;62.71;97150.28;10430591;28;20072;-28
2022/11/13 09:10:08;;;;;;;1.13;1.02;;;;;;;17.16;62.62;97148.53;10429683;28;20119;-28
2022/11/13 09:15:27;;;;;;;0.80;0.80;;;;;;;17.20;62.60;97121.59;10431261;28;20522;-28
2022/11/13 09:20:46;;;;;;;1.30;1.20;;;;;;;17.27;62.26;97123.38;10431099;28;20033;-27
2022/11/13 09:26:05;;;;;;;1.17;1.08;;;;;;;17.29;62.41;97126.75;10435060;28;20403;-27
2022/11/13 09:31:24;;;;;;;1.20;1.10;;;;;;;17.29;62.19;97121.69;10430753;28;20621;-29
2022/11/13 09:36:43;;;;;;;0.85;0.80;;;;;;;17.26;62.30;97124.22;10435656;28;20124;-28
2022/11/13 09:42:39;;;;;;;1.27;1.17;;;;;;;17.24;62.56;97123.34;10433372;28;20033;-28
2022/11/13 09:48:26;;;;;;;0.90;0.90;;;;;;;17.21;62.52;97128.34;10408004;28;20037;-27
2022/11/13 09:53:45;;;;;;;1.50;1.20;;;;;;;17.18;63.01;97118.22;10438686;28;20404;-28
2022/11/13 09:59:23;;;;;;;1.00;0.90;;;;;;;17.10;62.70;97104.63;10443563;28;20045;-28
2022/11/13 10:05:20;;;;;;;1.02;0.95;;;;;;;17.15;62.80;97097.94;10431831;28;20033;-27
2022/11/13 10:10:48;;;;;;;1.10;1.00;;;;;;;17.15;62.67;97097.94;10436543;28;20037;-28
2022/11/13 10:16:44;;;;;;;1.00;0.90;;;;;;;17.13;62.79;97105.50;10436272;28;20032;-28
2022/11/13 10:22:13;;;;;;;0.93;0.93;;;;;;;17.12;62.80;97093.69;10434838;28;20535;-28
2022/11/13 10:27:32;;;;;;;1.40;1.10;;;;;;;17.14;62.63;97086.13;10439816;28;20037;-28
2022/11/13 10:32:51;;;;;;;1.30;1.20;;;;;;;17.23;62.56;97082.00;10442659;28;20081;-29
2022/11/13 10:38:37;;;;;;;1.20;0.98;;;;;;;17.26;62.24;97082.03;10441034;28;20483;-28
2022/11/13 10:44:03;;;;;;;1.38;1.27;;;;;;;17.24;62.47;97060.09;10436227;28;20186;-29
2022/11/13 10:49:27;;;;;;;1.05;0.95;;;;;;;17.18;62.47;97053.28;10434827;28;20124;-28
2022/11/13 10:54:48;;;;;;;0.98;0.90;;;;;;;17.19;62.46;97049.94;10435809;28;20049;-28
2022/11/13 11:00:34;;;;;;;0.88;0.80;;;;;;;17.15;62.40;97049.88;10437305;28;20041;-28
2022/11/13 11:05:59;;;;;;;1.58;1.25;;;;;;;17.11;62.42;97027.91;10434037;28;20037;-28
2022/11/13 11:16:58;;;;;;;1.10;1.00;;;;;;;17.12;62.61;97019.47;10435532;28;20041;-27
2022/11/13 11:22:23;;;;;;;1.00;0.90;;;;;;;17.10;62.56;97008.50;10432839;28;20960;-30
2022/11/13 11:28:01;;;;;;;1.25;1.00;;;;;;;17.10;62.79;97005.97;10438473;28;20037;-27
2022/11/13 11:33:32;;;;;;;0.73;0.73;;;;;;;17.10;62.91;96998.38;10432429;28;20094;-27
2022/11/13 11:39:08;;;;;;;0.88;0.80;;;;;;;17.08;62.71;96980.66;10438045;28;20626;-28
2022/11/13 11:44:35;;;;;;;1.00;0.90;;;;;;;17.17;62.44;96990.03;10433673;28;20033;-28
2022/11/13 11:49:54;;;;;;;0.90;0.90;;;;;;;17.22;62.23;96983.31;10431869;28;20459;-28
2022/11/13 11:55:42;;;;;;;0.88;0.88;;;;;;;17.21;62.19;96979.06;10430792;28;20507;-28
2022/11/13 12:01:26;;;;;;;1.08;0.98;;;;;;;17.20;62.07;96964.72;10439817;28;20072;-29
2022/11/13 12:07:12;;;;;;;0.82;0.82;;;;;;;17.15;62.38;96944.47;10430972;28;20037;-28
2022/11/13 12:12:34;;;;;;;0.95;0.90;;;;;;;17.13;62.49;96958.78;10438490;28;20040;-28
2022/11/13 12:18:02;;;;;;;1.38;1.10;;;;;;;17.08;62.56;96949.47;10428481;28;20033;-28
2022/11/13 12:23:40;;;;;;;1.20;1.02;;;;;;;17.09;62.48;96930.91;10427585;28;20060;-30
2022/11/13 12:29:14;;;;;;;0.65;0.60;;;;;;;17.08;62.61;96929.22;10426841;28;20500;-28
2022/11/13 12:34:43;;;;;;;0.75;0.75;;;;;;;17.07;62.37;96917.41;10431955;28;20048;-27
2022/11/13 12:40:06;;;;;;;0.90;0.90;;;;;;;17.08;62.73;96919.09;10434972;28;20426;-28
2022/11/13 12:45:56;;;;;;;0.95;0.85;;;;;;;17.08;62.51;96898.88;10436356;28;20033;-28
2022/11/13 12:51:16;;;;;;;0.90;0.80;;;;;;;17.07;62.55;96894.66;10431716;28;20037;-28
2022/11/13 12:56:36;;;;;;;1.10;0.95;;;;;;;17.13;62.19;96897.22;10431825;28;20042;-28
2022/11/13 13:02:07;;;;;;;0.80;0.80;;;;;;;17.17;62.34;96886.28;10430774;28;20041;-29
2022/11/13 13:08:04;;;;;;;0.70;0.70;;;;;;;17.17;62.06;96878.72;10427680;28;20037;-28
2022/11/13 13:13:47;;;;;;;0.83;0.83;;;;;;;17.13;62.07;96867.72;10434576;28;20049;-28
2022/11/13 13:19:31;;;;;;;1.17;1.05;;;;;;;17.11;62.04;96863.47;10431314;28;20038;-28
2022/11/13 13:25:05;;;;;;;1.20;1.10;;;;;;;17.09;62.30;96855.84;10439706;28;20033;-28
2022/11/13 13:30:25;;;;;;;0.77;0.75;;;;;;;17.07;62.36;96855.00;10438460;28;20041;-28
2022/11/13 13:35:56;;;;;;;0.95;0.90;;;;;;;17.08;62.33;96863.47;10444335;28;20137;-28
2022/11/13 13:41:28;;;;;;;0.60;0.60;;;;;;;17.09;62.16;96865.16;10440674;28;20460;-28
2022/11/13 13:46:48;;;;;;;1.20;1.00;;;;;;;17.04;62.38;96826.31;10430191;28;20045;-27
2022/11/13 13:52:13;;;;;;;1.17;0.90;;;;;;;17.04;62.23;96836.44;10436661;28;20503;-28
2022/11/13 13:57:39;;;;;;;1.10;1.00;;;;;;;17.03;62.63;96824.63;10437087;28;20029;-27
2022/11/13 14:02:58;;;;;;;1.15;1.00;;;;;;;17.04;62.58;96831.38;10439861;28;20037;-28
2022/11/13 14:08:19;;;;;;;0.70;0.70;;;;;;;17.02;62.48;96820.41;10440937;28;20041;-28
2022/11/13 14:13:40;;;;;;;1.20;1.02;;;;;;;17.10;62.24;96819.63;10442180;28;20045;-29
2022/11/13 14:19:04;;;;;;;0.73;0.73;;;;;;;17.13;61.91;96827.25;10439334;28;20414;-28
2022/11/13 14:24:29;;;;;;;0.85;0.80;;;;;;;17.14;61.91;96823.03;10439859;28;20216;-28
2022/11/13 14:29:51;;;;;;;0.65;0.65;;;;;;;17.10;62.06;96821.31;10435666;28;20041;-27
2022/11/13 14:35:19;;;;;;;0.80;0.80;;;;;;;17.07;62.40;96832.25;10434741;28;20037;-28
2022/11/13 14:40:38;;;;;;;1.00;0.90;;;;;;;17.03;62.22;96824.63;10439227;28;20046;-27
2022/11/13 14:45:59;;;;;;;0.90;0.80;;;;;;;16.96;62.46;96813.63;10443938;28;20037;-27
2022/11/13 14:51:25;;;;;;;0.80;0.80;;;;;;;17.03;62.37;96814.50;10438785;28;20033;-27
2022/11/13 14:56:44;;;;;;;0.80;0.80;;;;;;;17.01;62.20;96816.19;10435072;28;20060;-28
2022/11/13 15:02:04;;;;;;;1.23;0.90;;;;;;;16.98;62.32;96813.66;10436894;28;20041;-28
2022/11/13 15:07:28;;;;;;;0.80;0.80;;;;;;;17.01;62.20;96827.16;10441949;28;20033;-28
2022/11/13 15:12:47;;;;;;;0.82;0.80;;;;;;;17.00;62.39;96824.63;10440991;28;20057;-27
2022/11/13 15:18:15;;;;;;;0.75;0.73;;;;;;;16.97;62.49;96824.56;10435924;28;20520;-28
2022/11/13 15:23:34;;;;;;;1.10;1.00;;;;;;;17.06;61.97;96829.72;10443154;28;20033;-28
2022/11/13 15:28:52;;;;;;;0.88;0.88;;;;;;;17.08;61.86;96823.81;10435697;28;20060;-29
2022/11/13 15:34:14;;;;;;;0.60;0.60;;;;;;;17.06;62.15;96825.50;10436447;28;20415;-28
2022/11/13 15:39:34;;;;;;;0.80;0.73;;;;;;;17.10;61.90;96826.38;10437078;28;20037;-28
2022/11/13 15:44:53;;;;;;;0.73;0.70;;;;;;;17.04;61.93;96819.59;10429485;28;20030;-28
2022/11/13 15:50:12;;;;;;;0.70;0.70;;;;;;;17.05;61.93;96817.88;10436673;28;20041;-29
2022/11/13 15:55:31;;;;;;;0.60;0.60;;;;;;;17.01;62.00;96821.25;10431664;28;20411;-28
2022/11/13 16:00:50;;;;;;;0.80;0.80;;;;;;;16.96;62.27;96817.81;10428844;28;20041;-28
2022/11/13 16:06:16;;;;;;;0.60;0.60;;;;;;;17.01;61.90;96821.25;10430417;28;20508;-28
2022/11/13 16:11:35;;;;;;;0.82;0.70;;;;;;;16.99;61.92;96806.03;10439180;28;20045;-27
2022/11/13 16:16:54;;;;;;;0.70;0.60;;;;;;;17.01;62.21;96806.06;10425754;28;20044;-28
2022/11/13 16:22:19;;;;;;;0.60;0.60;;;;;;;17.00;61.79;96809.44;10438789;28;20041;-28
2022/11/13 16:27:38;;;;;;;0.70;0.70;;;;;;;17.06;62.01;96812.03;10435971;28;20045;-29
2022/11/13 16:32:57;;;;;;;0.60;0.60;;;;;;;17.12;61.63;96806.97;10428818;28;20412;-28
2022/11/13 16:38:16;;;;;;;0.77;0.63;;;;;;;17.24;61.38;96810.44;10437201;28;20427;-29
2022/11/13 16:43:35;;;;;;;0.65;0.65;;;;;;;17.35;60.81;96811.38;10433104;28;20033;-28
2022/11/13 16:48:54;;;;;;;0.70;0.70;;;;;;;17.32;61.05;96793.63;10431568;28;20041;-28
2022/11/13 16:54:13;;;;;;;0.60;0.60;;;;;;;17.29;61.37;96796.13;10431932;28;20045;-28
2022/11/13 16:59:32;;;;;;;0.50;0.50;;;;;;;17.20;61.49;96777.50;10437700;28;20493;-28
2022/11/13 17:04:54;;;;;;;0.60;0.60;;;;;;;17.17;61.43;96785.94;10428637;28;20112;-28
2022/11/13 17:10:16;;;;;;;0.60;0.60;;;;;;;17.25;61.37;96786.81;10427170;28;20040;-28
2022/11/13 17:15:35;;;;;;;0.65;0.60;;;;;;;17.26;61.40;96777.56;10435831;28;20028;-27
2022/11/13 17:20:54;;;;;;;0.52;0.52;;;;;;;17.25;62.00;96775.88;10430471;28;20061;-29
2022/11/13 17:26:13;;;;;;;0.65;0.65;;;;;;;17.29;61.34;96777.56;10436469;28;20041;-28
2022/11/13 17:31:31;;;;;;;0.73;0.73;;;;;;;17.32;61.26;96767.47;10434095;28;20411;-28
2022/11/13 17:36:53;;;;;;;0.60;0.60;;;;;;;17.31;61.15;96765.78;10430802;28;20049;-30
2022/11/13 17:42:12;;;;;;;0.50;0.50;;;;;;;17.29;61.37;96768.31;10434983;28;20079;-28
2022/11/13 17:47:32;;;;;;;20.88;2.70;;;;;;;17.09;56.83;96762.28;10421157;28;20041;-27
2022/11/13 17:52:51;;;;;;;2.08;1.55;;;;;;;17.15;57.73;96754.72;10425073;28;20049;-28
2022/11/13 17:58:10;;;;;;;1.10;1.00;;;;;;;17.38;58.38;96752.34;10428438;28;20041;-30
2022/11/13 18:03:30;;;;;;;2.63;1.55;;;;;;;17.42;58.93;96743.94;10432328;28;20041;-28
2022/11/13 18:08:49;;;;;;;15.38;7.07;;;;;;;17.41;59.46;96734.66;10426102;28;20120;-28
2022/11/13 18:14:08;;;;;;;36.03;16.98;;;;;;;17.41;59.79;96739.72;10436425;28;20517;-28
2022/11/13 18:19:27;;;;;;;48.45;23.48;;;;;;;17.41;60.15;96745.63;10435098;28;20033;-28
2022/11/13 18:24:46;;;;;;;65.65;31.60;;;;;;;17.40;59.99;96748.97;10436690;28;20041;-29
2022/11/13 18:30:06;;;;;;;70.25;32.45;;;;;;;17.36;59.66;96754.03;10435365;28;20040;-32
2022/11/13 18:35:25;;;;;;;64.25;31.60;;;;;;;17.38;59.74;96762.47;10435934;28;20037;-30
2022/11/13 18:40:44;;;;;;;64.93;30.77;;;;;;;17.27;60.35;96759.88;10443636;28;20049;-31
2022/11/13 18:46:06;;;;;;;68.72;31.38;;;;;;;17.29;60.36;96790.22;10443040;28;20679;-30
2022/11/13 18:51:27;;;;;;;72.82;30.15;;;;;;;17.32;60.90;96793.63;10435090;28;20045;-30
2022/11/13 18:56:46;;;;;;;52.83;23.83;;;;;;;17.39;60.87;96779.34;10433092;28;20483;-30
2022/11/13 19:02:05;;;;;;;54.65;26.75;;;;;;;17.42;60.16;96766.72;10423498;28;20041;-30
2022/11/13 19:07:24;;;;;;;46.72;22.80;;;;;;;17.43;59.96;96745.63;10426128;28;20049;-31
2022/11/13 19:12:43;;;;;;;45.75;20.88;;;;;;;17.38;59.93;96743.06;10430120;28;20041;-31
2022/11/13 19:18:03;;;;;;;44.05;21.65;;;;;;;17.32;59.72;96737.13;10428019;28;20469;-30
2022/11/13 19:23:21;;;;;;;39.30;19.45;;;;;;;17.30;60.11;96738.78;10430958;28;20580;-29
2022/11/13 19:28:41;;;;;;;46.83;22.00;;;;;;;17.26;60.24;96732.03;10432961;28;20041;-30
2022/11/13 19:34:03;;;;;;;41.15;20.23;;;;;;;17.26;60.10;96749.72;10429028;28;20045;-30
2022/11/13 19:39:22;;;;;;;37.35;19.55;;;;;;;17.16;60.38;96725.22;10432981;28;20036;-32
2022/11/13 19:44:41;;;;;;;38.35;18.73;;;;;;;17.23;60.34;96732.00;10425881;28;20041;-30
2022/11/13 19:50:00;;;;;;;40.08;19.10;;;;;;;17.23;60.02;96730.31;10427827;28;20503;-30
2022/11/13 19:55:20;;;;;;;33.83;17.77;;;;;;;17.19;60.19;96750.53;10435952;28;20127;-30
2022/11/13 20:00:38;;;;;;;32.78;17.00;;;;;;;17.18;59.83;96764.88;10439971;28;20506;-31
2022/11/13 20:05:59;;;;;;;29.45;15.07;;;;;;;17.07;59.96;96742.88;10420697;28;20033;-30
2022/11/13 20:11:19;;;;;;;29.92;16.25;;;;;;;17.23;59.42;96737.06;10427342;28;20049;-30
2022/11/13 20:16:38;;;;;;;35.65;15.48;;;;;;;17.30;59.37;96742.16;10431711;28;20040;-30
2022/11/13 20:21:57;;;;;;;28.67;15.48;;;;;;;17.30;59.30;96732.03;10434646;28;20052;-29
2022/11/13 20:27:16;;;;;;;29.33;15.07;;;;;;;17.22;59.58;96737.88;10438068;28;20033;-31
2022/11/13 20:32:36;;;;;;;26.58;14.25;;;;;;;17.19;59.79;96740.41;10427823;28;20052;-30
2022/11/13 20:37:56;;;;;;;29.05;14.23;;;;;;;17.15;60.07;96721.00;10427014;28;20052;-30
2022/11/13 20:43:15;;;;;;;26.08;13.93;;;;;;;17.22;59.18;96705.00;10427938;28;20032;-30
2022/11/13 20:48:34;;;;;;;19.83;11.77;;;;;;;17.22;59.25;96685.63;10423488;28;20091;-31
2022/11/13 20:53:53;;;;;;;26.17;12.90;;;;;;;17.30;58.64;96671.31;10423596;28;20041;-31
2022/11/13 20:59:13;;;;;;;22.35;11.48;;;;;;;17.27;59.21;96668.78;10426586;28;20040;-30
2022/11/13 21:04:32;;;;;;;22.13;11.85;;;;;;;17.30;58.66;96672.97;10424725;28;20487;-30
2022/11/13 21:09:50;;;;;;;18.15;10.02;;;;;;;17.31;58.26;96669.66;10424117;28;20048;-30
2022/11/13 21:15:09;;;;;;;22.33;12.40;;;;;;;17.35;58.52;96671.31;10425648;28;20503;-30
2022/11/13 21:20:29;;;;;;;18.17;11.23;;;;;;;17.37;58.00;96674.72;10423364;28;20045;-30
2022/11/13 21:25:57;;;;;;;19.92;11.60;;;;;;;17.40;57.80;96662.13;10426111;28;20041;-30
2022/11/13 21:31:18;;;;;;;21.95;11.52;;;;;;;17.46;57.55;96664.63;10425686;28;20072;-30
2022/11/13 21:36:37;;;;;;;20.17;11.35;;;;;;;17.45;57.91;96658.75;10426014;28;20115;-31
2022/11/13 21:41:56;;;;;;;22.10;9.93;;;;;;;17.36;57.84;96643.53;10433466;28;20041;-30
2022/11/13 21:47:15;;;;;;;25.73;11.85;;;;;;;17.21;58.59;96651.03;10435920;28;20079;-30
2022/11/13 21:52:34;;;;;;;15.40;8.60;;;;;;;17.20;58.71;96646.81;10426412;28;20040;-31
2022/11/13 21:57:53;;;;;;;17.13;9.27;;;;;;;17.18;58.58;96627.41;10439619;28;20033;-30
2022/11/13 22:03:12;;;;;;;16.20;7.90;;;;;;;17.24;58.41;96637.56;10441666;28;20045;-32
2022/11/13 22:08:31;;;;;;;12.25;6.85;;;;;;;17.28;58.07;96644.31;10427053;28;20053;-32
2022/11/13 22:13:50;;;;;;;15.00;8.00;;;;;;;17.28;58.29;96624.06;10443073;28;20120;-30
2022/11/13 22:19:13;;;;;;;14.18;7.50;;;;;;;17.24;58.86;96617.31;10438135;28;20049;-30
2022/11/13 22:24:32;;;;;;;13.48;7.65;;;;;;;17.19;58.95;96612.25;10437785;28;20445;-31
2022/11/13 22:29:50;;;;;;;14.02;7.72;;;;;;;17.21;59.15;96609.69;10428593;28;20446;-30
2022/11/13 22:35:09;;;;;;;16.55;7.32;;;;;;;17.16;59.09;96606.34;10442782;28;20041;-30
2022/11/13 22:40:28;;;;;;;11.60;7.05;;;;;;;17.24;57.92;96602.16;10439442;28;20041;-30
2022/11/13 22:45:47;;;;;;;11.70;6.60;;;;;;;17.36;57.75;96589.53;10440382;28;20048;-30
2022/11/13 22:51:10;;;;;;;13.48;7.00;;;;;;;17.31;57.97;96578.56;10437407;28;20037;-30
2022/11/13 22:56:31;;;;;;;12.30;6.45;;;;;;;17.19;58.57;96568.38;10434890;28;20041;-31
2022/11/13 23:01:49;;;;;;;12.65;6.95;;;;;;;17.19;58.89;96573.44;10440978;28;20439;-30
2022/11/13 23:07:08;;;;;;;10.15;5.78;;;;;;;17.15;59.21;96562.47;10433774;28;20037;-30
2022/11/13 23:12:27;;;;;;;10.55;5.97;;;;;;;17.16;59.39;96566.69;10442241;28;20423;-30
2022/11/13 23:17:46;;;;;;;8.43;5.40;;;;;;;17.13;59.34;96568.34;10434512;28;20177;-30
2022/11/13 23:23:06;;;;;;;12.18;6.00;;;;;;;17.11;59.48;96544.75;10428227;28;20499;-30
2022/11/13 23:28:26;;;;;;;10.80;6.05;;;;;;;17.11;59.28;96529.56;10436065;28;20068;-30
2022/11/13 23:33:45;;;;;;;11.98;6.00;;;;;;;17.10;59.44;96545.59;10434514;28;20064;-30
2022/11/13 23:39:04;;;;;;;9.15;5.30;;;;;;;17.07;59.36;96517.78;10440121;28;20037;-30
2022/11/13 23:44:23;;;;;;;7.65;4.68;;;;;;;17.07;59.50;96518.59;10433975;28;20036;-30
2022/11/13 23:49:42;;;;;;;7.88;5.03;;;;;;;17.08;59.40;96507.66;10431915;28;20064;-28
2022/11/13 23:55:01;;;;;;;9.95;5.00;;;;;;;17.17;58.33;96511.91;10433159;28;20041;-28
